createdAt,value
2022-08-22T00:00:17.280Z,0
2022-08-22T00:03:01.581Z,454
2022-08-22T00:03:08.440Z,221
2022-08-22T00:03:10.469Z,344
2022-08-22T00:03:10.808Z,284
2022-08-22T00:05:17.355Z,0
2022-08-22T00:10:24.969Z,0
2022-08-22T00:15:41.846Z,0
2022-08-22T00:20:17.493Z,0
2022-08-22T00:25:24.656Z,0
2022-08-22T00:30:17.239Z,0
2022-08-22T00:35:17.242Z,0
2022-08-22T00:40:17.324Z,0
2022-08-22T00:45:18.131Z,0
2022-08-22T00:50:17.477Z,0
2022-08-22T00:55:17.264Z,0
2022-08-22T01:00:17.388Z,0
2022-08-22T01:05:17.415Z,0
2022-08-22T01:10:17.229Z,0
2022-08-22T01:15:17.443Z,0
2022-08-22T01:20:17.563Z,0
2022-08-22T01:25:17.450Z,0
2022-08-22T01:30:17.609Z,0
2022-08-22T01:35:17.517Z,0
2022-08-22T01:40:17.488Z,0
2022-08-22T01:45:17.563Z,0
2022-08-22T01:50:17.325Z,0
2022-08-22T01:55:17.509Z,0
2022-08-22T02:00:17.635Z,0
2022-08-22T02:05:17.466Z,0
2022-08-22T02:10:17.380Z,0
2022-08-22T02:15:17.923Z,0
2022-08-22T02:20:17.442Z,0
2022-08-22T02:25:17.488Z,0
2022-08-22T02:30:17.507Z,0
2022-08-22T02:35:17.711Z,0
2022-08-22T02:40:17.907Z,0
2022-08-22T02:45:17.567Z,0
2022-08-22T02:50:17.650Z,0
2022-08-22T02:55:17.540Z,0
2022-08-22T03:00:30.818Z,0
2022-08-22T03:05:18.077Z,0
2022-08-22T03:10:17.469Z,0
2022-08-22T03:15:17.713Z,0
2022-08-22T03:20:17.593Z,0
2022-08-22T03:25:17.642Z,0
2022-08-22T03:30:17.844Z,0
2022-08-22T03:35:17.636Z,0
2022-08-22T03:40:17.814Z,0
2022-08-22T03:45:17.685Z,0
2022-08-22T03:50:17.946Z,0
2022-08-22T03:55:17.643Z,0
2022-08-22T04:00:16.733Z,0
2022-08-22T04:05:16.685Z,0
2022-08-22T04:10:16.646Z,0
2022-08-22T04:15:17.306Z,0
2022-08-22T04:20:16.888Z,0
2022-08-22T04:25:16.813Z,0
2022-08-22T04:30:16.766Z,0
2022-08-22T04:35:16.659Z,0
2022-08-22T04:40:16.710Z,0
2022-08-22T04:45:16.974Z,0
2022-08-22T04:50:16.810Z,0
2022-08-22T04:55:16.703Z,0
2022-08-22T05:00:16.974Z,0
2022-08-22T05:05:16.775Z,0
2022-08-22T05:10:16.679Z,0
2022-08-22T05:15:18.898Z,0
2022-08-22T05:20:17.049Z,0
2022-08-22T05:25:17.062Z,0
2022-08-22T05:30:16.898Z,0
2022-08-22T05:35:16.840Z,0
2022-08-22T05:40:16.871Z,0
2022-08-22T05:45:17.135Z,0
2022-08-22T05:50:16.832Z,0
2022-08-22T05:55:17.078Z,0
2022-08-22T06:00:17.201Z,0
2022-08-22T06:05:16.996Z,0
2022-08-22T06:10:16.955Z,0
2022-08-22T06:15:21.104Z,0
2022-08-22T06:20:16.865Z,0
2022-08-22T06:25:16.903Z,0
2022-08-22T06:30:17.166Z,0
2022-08-22T06:35:17.093Z,0
2022-08-22T06:40:17.038Z,0
2022-08-22T06:45:17.144Z,0
2022-08-22T06:50:16.957Z,0
2022-08-22T06:55:16.988Z,0
2022-08-22T07:00:17.039Z,0
2022-08-22T07:05:17.065Z,0
2022-08-22T07:10:17.662Z,0
2022-08-22T07:15:18.224Z,0
2022-08-22T07:20:17.155Z,0
2022-08-22T07:25:17.050Z,0
2022-08-22T07:30:17.119Z,0
2022-08-22T07:35:17.314Z,0
2022-08-22T07:40:18.457Z,0
2022-08-22T07:45:17.206Z,0
2022-08-22T07:50:17.093Z,0
2022-08-22T07:55:17.195Z,0
2022-08-22T08:00:17.147Z,0
2022-08-22T08:05:17.110Z,0
2022-08-22T08:10:17.236Z,0
2022-08-22T08:15:17.392Z,0
2022-08-22T08:20:17.293Z,0
2022-08-22T08:25:17.294Z,0
2022-08-22T08:30:17.581Z,0
2022-08-22T08:35:17.247Z,0
2022-08-22T08:40:17.314Z,0
2022-08-22T08:45:17.319Z,0
2022-08-22T08:50:17.407Z,0
2022-08-22T08:55:21.949Z,0
2022-08-22T09:00:17.584Z,0
2022-08-22T09:05:17.437Z,0
2022-08-22T09:10:18.840Z,0
2022-08-22T09:15:17.536Z,0
2022-08-22T09:20:19.567Z,0
2022-08-22T09:25:17.759Z,0
2022-08-22T09:30:17.334Z,0
2022-08-22T09:35:17.351Z,0
2022-08-22T09:40:20.445Z,0
2022-08-22T09:45:17.471Z,0
2022-08-22T09:50:17.729Z,0
2022-08-22T09:55:18.483Z,0
2022-08-22T10:00:17.587Z,0
2022-08-22T10:05:40.258Z,2
2022-08-22T10:10:17.612Z,7
2022-08-22T10:15:17.495Z,7
2022-08-22T10:20:17.331Z,9
2022-08-22T10:25:18.694Z,16
2022-08-22T10:30:17.720Z,30
2022-08-22T10:35:17.808Z,33
2022-08-22T10:40:17.532Z,46
2022-08-22T10:45:23.897Z,60
2022-08-22T10:50:17.660Z,64
2022-08-22T10:55:17.455Z,67
2022-08-22T11:00:22.846Z,63
2022-08-22T11:05:17.571Z,93
2022-08-22T11:10:17.532Z,95
2022-08-22T11:15:28.283Z,113
2022-08-22T11:20:19.564Z,102
2022-08-22T11:25:23.775Z,106
2022-08-22T11:30:18.193Z,112
2022-08-22T11:35:17.535Z,106
2022-08-22T11:40:17.598Z,104
2022-08-22T11:45:17.962Z,106
2022-08-22T11:50:17.711Z,108
2022-08-22T11:55:18.154Z,91
2022-08-22T12:00:17.823Z,77
2022-08-22T12:05:24.267Z,93
2022-08-22T12:10:17.784Z,116
2022-08-22T12:15:17.782Z,130
2022-08-22T12:20:18.724Z,156
2022-08-22T12:25:17.674Z,175
2022-08-22T12:30:17.686Z,223
2022-08-22T12:35:17.648Z,205
2022-08-22T12:40:17.835Z,221
2022-08-22T12:45:17.779Z,261
2022-08-22T12:50:17.968Z,334
2022-08-22T12:55:17.771Z,337
2022-08-22T13:00:17.849Z,361
2022-08-22T13:05:19.872Z,347
2022-08-22T13:10:18.516Z,348
2022-08-22T13:15:18.071Z,312
2022-08-22T13:20:17.777Z,313
2022-08-22T13:25:25.382Z,335
2022-08-22T13:30:17.926Z,315
2022-08-22T13:35:17.824Z,279
2022-08-22T13:40:17.809Z,237
2022-08-22T13:45:17.977Z,249
2022-08-22T13:50:17.973Z,197
2022-08-22T13:55:17.895Z,215
2022-08-22T14:00:28.465Z,306
2022-08-22T14:05:17.879Z,339
2022-08-22T14:10:18.438Z,333
2022-08-22T14:15:17.919Z,278
2022-08-22T14:20:32.347Z,235
2022-08-22T14:25:18.761Z,280
2022-08-22T14:30:19.058Z,239
2022-08-22T14:35:21.699Z,148
2022-08-22T14:40:17.950Z,102
2022-08-22T14:45:18.265Z,125
2022-08-22T14:50:17.916Z,218
2022-08-22T14:55:17.947Z,273
